Peotone Weather

Nearby METAR Reports

 

KIGQ - Lansing, Illinois, USA
Distance from station: NE 19mi, 30km
Updated: Sun, 28-May-2017 11:35am CDT
Mostly cloudy
Mostly cloudy
 Wind from WNW
Wind: WNW 7 mph , 11 km/h
Temperature: 75°F , 24°C
Dew Point: 66°F , 19°C
Humidity: 74%
Barometer: 29.73 inHg , 1006.8 hPa
Clouds: Mostly cloudy
Visibility: 10 miles , 16 km
Cloud details: Partly cloudy 2900 ft
Partly cloudy 6000 ft
Mostly cloudy 9000 ft
2017/05/28 16:35 KIGQ 281635Z AUTO 30006KT 10SM SCT029 SCT060 BKN090 24/19 A2973 RMK AO2 T02400186
KIKK - Kankakee, Illinois, USA
Distance from station: S 19mi, 30km
Updated: Sun, 28-May-2017 11:35am CDT
Partly cloudy
Partly cloudy
 Wind from NW
Wind: NW 9 mph , 15 km/h, Gust: 16 mph , 26 km/h
Temperature: 79°F , 26°C
Dew Point: 61°F , 16°C
Humidity: 54%
Barometer: 29.74 inHg , 1007.1 hPa
Clouds: Partly cloudy
Visibility: 10 miles , 16 km
Cloud details: Partly cloudy 3100 ft
Partly cloudy 3800 ft
2017/05/28 16:35 KIKK 281635Z AUTO 31008G14KT 10SM SCT031 SCT038 26/16 A2974 RMK AO2 T02560160
 
KSJC - Joliet, Illinois, USA
Distance from station: WNW 24mi, 38km
Updated: Sun, 28-May-2017 10:53am CDT
NOT Current
Overcast
Overcast
 Wind from NW
Wind: NW 6 mph , 9 km/h
Temperature: 57°F , 14°C
Dew Point: 52°F , 11°C
Humidity: 82%
Barometer: 30.11 inHg , 1019.6 hPa
Clouds: Overcast
Visibility: 10 miles , 16 km
Cloud details: Few Clouds 900 ft
Mostly cloudy 1500 ft
Overcast 2100 ft
2017/05/28 15:53 KSJC 281553Z 32005KT 10SM FEW009 BKN015 OVC021 14/11 A3011 RMK AO2 SLP195 T01390111
KLOT - Romeoville, Illinois, USA
Distance from station: NW 26mi, 41km
Updated: Sun, 28-May-2017 11:35am CDT
Partly cloudy
Partly cloudy
 Wind from NNW
Wind: NNW 8 mph , 13 km/h
Temperature: 72°F , 22°C
Dew Point: 64°F , 18°C
Humidity: 78%
Barometer: 29.75 inHg , 1007.5 hPa
Clouds: Partly cloudy
Visibility: 10 miles , 16 km
Cloud details: Partly cloudy 2500 ft
Partly cloudy 3100 ft
Partly cloudy 3700 ft
2017/05/28 16:35 KLOT 281635Z AUTO 33007KT 10SM SCT025 SCT031 SCT037 22/18 A2975 RMK AO2 T02200180
 
KMDW - Midway Airport Chicago, Illinois, USA
Distance from station: N 31mi, 50km
Updated: Sun, 28-May-2017 10:53am CDT
NOT Current
Mostly cloudy
Mostly cloudy
 Wind from WNW
Wind: WNW 10 mph , 17 km/h
Temperature: 73°F , 23°C
Dew Point: 63°F , 17°C
Humidity: 69%
Barometer: 29.73 inHg , 1006.8 hPa
Clouds: Mostly cloudy
Visibility: 10 miles , 16 km
Cloud details: Few Clouds 2600 ft
Partly cloudy 3600 ft
Mostly cloudy 7500 ft
Mostly cloudy 25000 ft
2017/05/28 15:53 KMDW 281553Z 29009KT 10SM FEW026 SCT036 BKN075 BKN250 23/17 A2973 RMK AO2 SLP061 CB DSNT NW-N T02330172 $
KC09 - Morris, Illinois, USA
Distance from station: W 34mi, 54km
Updated: Sun, 28-May-2017 11:35am CDT
Mostly cloudy
Mostly cloudy
 Wind from calm
Wind: Calm
Temperature: 73°F , 23°C
Dew Point: 63°F , 17°C
Humidity: 69%
Barometer: 29.74 inHg , 1007.1 hPa
Clouds: Mostly cloudy
Visibility: 10 miles , 16 km
Cloud details: Partly cloudy 2800 ft
Mostly cloudy 3900 ft
Mostly cloudy 8500 ft
2017/05/28 16:35 KC09 281635Z AUTO 00000KT 10SM SCT028 BKN039 BKN085 23/17 A2974 RMK AO2 T02340169

Metar display script from Saratoga-Weather.org